sensor_id;sensor_type;location;lat;lon;timestamp;P1;durP1;ratioP1;P2;durP2;ratioP2
16673;SDS011;8450;52.654;10.326;2023-02-28T07:15:15;7.87;;;5.23;;
16673;SDS011;8450;52.654;10.326;2023-02-28T07:17:41;7.50;;;5.17;;
16673;SDS011;8450;52.654;10.326;2023-02-28T07:20:07;8.10;;;5.73;;
16673;SDS011;8450;52.654;10.326;2023-02-28T07:22:33;9.13;;;6.53;;
16673;SDS011;8450;52.654;10.326;2023-02-28T07:24:58;7.97;;;7.00;;
16673;SDS011;8450;52.654;10.326;2023-02-28T07:27:24;9.97;;;6.80;;
16673;SDS011;8450;52.654;10.326;2023-02-28T07:29:50;8.60;;;6.70;;
16673;SDS011;8450;52.654;10.326;2023-02-28T07:32:16;10.73;;;7.30;;
16673;SDS011;8450;52.654;10.326;2023-02-28T07:34:43;7.30;;;6.07;;
16673;SDS011;8450;52.654;10.326;2023-02-28T07:37:09;7.73;;;6.27;;
16673;SDS011;8450;52.654;10.326;2023-02-28T07:39:34;6.90;;;6.10;;
16673;SDS011;8450;52.654;10.326;2023-02-28T07:42:03;7.20;;;5.67;;
16673;SDS011;8450;52.654;10.326;2023-02-28T07:44:31;6.07;;;5.43;;
16673;SDS011;8450;52.654;10.326;2023-02-28T07:46:57;7.23;;;5.23;;
16673;SDS011;8450;52.654;10.326;2023-02-28T07:49:23;5.67;;;4.87;;
16673;SDS011;8450;52.654;10.326;2023-02-28T07:51:48;6.77;;;4.40;;
16673;SDS011;8450;52.654;10.326;2023-02-28T07:54:14;5.53;;;4.87;;
16673;SDS011;8450;52.654;10.326;2023-02-28T07:56:39;7.73;;;3.97;;
16673;SDS011;8450;52.654;10.326;2023-02-28T07:59:05;5.87;;;4.40;;
16673;SDS011;8450;52.654;10.326;2023-02-28T08:01:30;5.50;;;4.40;;
16673;SDS011;8450;52.654;10.326;2023-02-28T08:03:56;4.93;;;3.97;;
16673;SDS011;8450;52.654;10.326;2023-02-28T08:06:22;7.67;;;4.50;;
16673;SDS011;8450;52.654;10.326;2023-02-28T08:08:49;5.13;;;4.10;;
16673;SDS011;8450;52.654;10.326;2023-02-28T08:11:16;4.13;;;3.73;;
16673;SDS011;8450;52.654;10.326;2023-02-28T08:13:43;4.77;;;3.80;;
16673;SDS011;8450;52.654;10.326;2023-02-28T08:16:10;5.17;;;4.20;;
16673;SDS011;8450;52.654;10.326;2023-02-28T08:18:36;4.40;;;3.83;;
16673;SDS011;8450;52.654;10.326;2023-02-28T08:21:11;4.40;;;3.90;;
16673;SDS011;8450;52.654;10.326;2023-02-28T08:23:36;4.37;;;3.97;;
16673;SDS011;8450;52.654;10.326;2023-02-28T08:26:02;4.03;;;3.37;;
16673;SDS011;8450;52.654;10.326;2023-02-28T08:28:28;4.37;;;3.63;;
16673;SDS011;8450;52.654;10.326;2023-02-28T08:30:54;3.57;;;3.10;;
16673;SDS011;8450;52.654;10.326;2023-02-28T08:33:20;5.40;;;3.50;;
16673;SDS011;8450;52.654;10.326;2023-02-28T08:35:46;6.27;;;3.30;;
16673;SDS011;8450;52.654;10.326;2023-02-28T08:38:11;4.17;;;3.00;;
16673;SDS011;8450;52.654;10.326;2023-02-28T08:40:37;4.67;;;3.10;;
16673;SDS011;8450;52.654;10.326;2023-02-28T08:43:02;3.93;;;3.37;;
16673;SDS011;8450;52.654;10.326;2023-02-28T08:45:28;3.90;;;3.00;;
16673;SDS011;8450;52.654;10.326;2023-02-28T08:47:54;3.00;;;2.70;;
16673;SDS011;8450;52.654;10.326;2023-02-28T08:50:20;5.10;;;3.27;;
16673;SDS011;8450;52.654;10.326;2023-02-28T08:52:46;3.73;;;3.10;;
16673;SDS011;8450;52.654;10.326;2023-02-28T08:55:12;2.90;;;2.60;;
16673;SDS011;8450;52.654;10.326;2023-02-28T08:57:37;4.83;;;3.50;;
16673;SDS011;8450;52.654;10.326;2023-02-28T09:00:03;3.77;;;2.80;;
16673;SDS011;8450;52.654;10.326;2023-02-28T09:02:32;3.70;;;3.10;;
16673;SDS011;8450;52.654;10.326;2023-02-28T09:04:58;4.77;;;2.77;;
16673;SDS011;8450;52.654;10.326;2023-02-28T09:07:24;3.43;;;2.73;;
16673;SDS011;8450;52.654;10.326;2023-02-28T09:09:49;2.87;;;2.57;;
16673;SDS011;8450;52.654;10.326;2023-02-28T09:12:25;3.47;;;2.77;;
16673;SDS011;8450;52.654;10.326;2023-02-28T09:14:52;3.43;;;2.60;;
16673;SDS011;8450;52.654;10.326;2023-02-28T09:17:18;2.63;;;2.37;;
16673;SDS011;8450;52.654;10.326;2023-02-28T09:19:44;4.03;;;2.40;;
16673;SDS011;8450;52.654;10.326;2023-02-28T09:22:12;3.07;;;2.40;;
16673;SDS011;8450;52.654;10.326;2023-02-28T09:24:37;2.87;;;2.30;;
16673;SDS011;8450;52.654;10.326;2023-02-28T09:27:03;2.97;;;2.57;;
16673;SDS011;8450;52.654;10.326;2023-02-28T09:29:29;2.60;;;2.37;;
16673;SDS011;8450;52.654;10.326;2023-02-28T09:31:55;3.73;;;2.30;;
16673;SDS011;8450;52.654;10.326;2023-02-28T09:34:24;3.20;;;2.27;;
16673;SDS011;8450;52.654;10.326;2023-02-28T09:36:50;2.70;;;2.20;;
16673;SDS011;8450;52.654;10.326;2023-02-28T09:39:20;2.70;;;1.97;;
16673;SDS011;8450;52.654;10.326;2023-02-28T09:41:47;3.67;;;2.53;;
16673;SDS011;8450;52.654;10.326;2023-02-28T09:44:18;1.87;;;1.77;;
16673;SDS011;8450;52.654;10.326;2023-02-28T09:47:13;2.00;;;1.80;;
16673;SDS011;8450;52.654;10.326;2023-02-28T09:49:48;3.60;;;1.90;;
16673;SDS011;8450;52.654;10.326;2023-02-28T09:52:17;2.00;;;1.83;;
16673;SDS011;8450;52.654;10.326;2023-02-28T09:54:46;2.30;;;1.80;;
16673;SDS011;8450;52.654;10.326;2023-02-28T09:57:27;1.97;;;1.60;;
16673;SDS011;8450;52.654;10.326;2023-02-28T10:00:04;1.73;;;1.63;;
16673;SDS011;8450;52.654;10.326;2023-02-28T10:05:41;2.00;;;1.73;;
16673;SDS011;8450;52.654;10.326;2023-02-28T10:08:19;1.60;;;1.50;;
16673;SDS011;8450;52.654;10.326;2023-02-28T10:10:56;2.53;;;1.70;;
16673;SDS011;8450;52.654;10.326;2023-02-28T10:13:32;1.77;;;1.60;;
16673;SDS011;8450;52.654;10.326;2023-02-28T10:16:03;2.63;;;1.77;;
16673;SDS011;8450;52.654;10.326;2023-02-28T10:21:43;3.03;;;1.67;;
16673;SDS011;8450;52.654;10.326;2023-02-28T10:24:26;2.00;;;1.50;;
16673;SDS011;8450;52.654;10.326;2023-02-28T10:27:35;2.07;;;1.50;;
16673;SDS011;8450;52.654;10.326;2023-02-28T10:29:55;1.87;;;1.20;;
16673;SDS011;8450;52.654;10.326;2023-02-28T10:35:15;1.20;;;1.10;;
16673;SDS011;8450;52.654;10.326;2023-02-28T10:37:50;1.87;;;1.57;;
16673;SDS011;8450;52.654;10.326;2023-02-28T10:42:55;1.53;;;1.20;;
16673;SDS011;8450;52.654;10.326;2023-02-28T10:45:21;2.10;;;1.47;;
16673;SDS011;8450;52.654;10.326;2023-02-28T10:50:32;1.70;;;1.43;;
16673;SDS011;8450;52.654;10.326;2023-02-28T10:55:56;1.83;;;1.20;;
16673;SDS011;8450;52.654;10.326;2023-02-28T10:58:29;3.73;;;1.50;;
16673;SDS011;8450;52.654;10.326;2023-02-28T11:00:56;2.53;;;1.70;;
16673;SDS011;8450;52.654;10.326;2023-02-28T11:05:57;2.30;;;1.50;;
16673;SDS011;8450;52.654;10.326;2023-02-28T11:08:23;1.60;;;1.43;;
16673;SDS011;8450;52.654;10.326;2023-02-28T11:10:59;2.37;;;1.50;;
16673;SDS011;8450;52.654;10.326;2023-02-28T11:13:33;2.13;;;1.50;;
16673;SDS011;8450;52.654;10.326;2023-02-28T11:16:02;1.90;;;1.57;;
16673;SDS011;8450;52.654;10.326;2023-02-28T11:18:32;1.47;;;1.37;;
16673;SDS011;8450;52.654;10.326;2023-02-28T11:21:06;1.50;;;1.40;;
16673;SDS011;8450;52.654;10.326;2023-02-28T11:27:41;1.63;;;1.40;;
16673;SDS011;8450;52.654;10.326;2023-02-28T11:36:04;1.50;;;1.40;;
16673;SDS011;8450;52.654;10.326;2023-02-28T11:38:36;1.50;;;1.40;;
16673;SDS011;8450;52.654;10.326;2023-02-28T11:43:59;1.40;;;1.30;;
16673;SDS011;8450;52.654;10.326;2023-02-28T11:46:52;1.57;;;1.27;;
16673;SDS011;8450;52.654;10.326;2023-02-28T11:49:30;1.43;;;1.20;;
16673;SDS011;8450;52.654;10.326;2023-02-28T11:52:15;1.50;;;1.40;;
16673;SDS011;8450;52.654;10.326;2023-02-28T11:55:19;2.17;;;1.43;;
16673;SDS011;8450;52.654;10.326;2023-02-28T11:57:59;1.33;;;1.20;;
16673;SDS011;8450;52.654;10.326;2023-02-28T12:00:38;1.27;;;1.17;;
16673;SDS011;8450;52.654;10.326;2023-02-28T12:06:36;2.93;;;1.33;;
16673;SDS011;8450;52.654;10.326;2023-02-28T12:09:00;2.03;;;1.70;;
16673;SDS011;8450;52.654;10.326;2023-02-28T12:14:41;2.07;;;1.43;;
16673;SDS011;8450;52.654;10.326;2023-02-28T12:20:18;1.87;;;1.57;;
16673;SDS011;8450;52.654;10.326;2023-02-28T12:28:10;1.43;;;1.17;;
16673;SDS011;8450;52.654;10.326;2023-02-28T12:30:41;2.13;;;1.30;;
16673;SDS011;8450;52.654;10.326;2023-02-28T12:39:58;1.50;;;1.40;;
16673;SDS011;8450;52.654;10.326;2023-02-28T12:42:32;3.40;;;1.77;;
16673;SDS011;8450;52.654;10.326;2023-02-28T12:47:50;1.67;;;1.20;;
16673;SDS011;8450;52.654;10.326;2023-02-28T12:50:19;2.63;;;1.30;;
16673;SDS011;8450;52.654;10.326;2023-02-28T13:03:43;1.40;;;1.30;;
16673;SDS011;8450;52.654;10.326;2023-02-28T13:06:41;1.53;;;1.43;;
16673;SDS011;8450;52.654;10.326;2023-02-28T13:09:24;1.40;;;1.30;;
16673;SDS011;8450;52.654;10.326;2023-02-28T13:11:51;1.70;;;1.40;;
16673;SDS011;8450;52.654;10.326;2023-02-28T13:22:19;1.53;;;1.40;;
16673;SDS011;8450;52.654;10.326;2023-02-28T13:25:04;2.07;;;1.73;;
16673;SDS011;8450;52.654;10.326;2023-02-28T13:28:13;1.87;;;1.70;;
16673;SDS011;8450;52.654;10.326;2023-02-28T13:31:01;2.60;;;1.50;;
16673;SDS011;8450;52.654;10.326;2023-02-28T13:33:34;2.43;;;1.57;;
16673;SDS011;8450;52.654;10.326;2023-02-28T13:57:21;3.17;;;2.13;;
16673;SDS011;8450;52.654;10.326;2023-02-28T14:08:57;2.77;;;2.00;;
16673;SDS011;8450;52.654;10.326;2023-02-28T14:11:37;2.97;;;2.60;;
16673;SDS011;8450;52.654;10.326;2023-02-28T14:17:19;2.30;;;2.10;;
16673;SDS011;8450;52.654;10.326;2023-02-28T14:19:45;3.20;;;2.23;;
16673;SDS011;8450;52.654;10.326;2023-02-28T14:28:18;3.13;;;2.53;;
16673;SDS011;8450;52.654;10.326;2023-02-28T14:31:02;3.33;;;2.50;;
16673;SDS011;8450;52.654;10.326;2023-02-28T14:36:25;3.07;;;2.50;;
16673;SDS011;8450;52.654;10.326;2023-02-28T14:38:56;3.47;;;2.47;;
16673;SDS011;8450;52.654;10.326;2023-02-28T14:44:00;3.07;;;2.77;;
16673;SDS011;8450;52.654;10.326;2023-02-28T14:46:34;3.40;;;2.70;;
16673;SDS011;8450;52.654;10.326;2023-02-28T14:49:06;3.30;;;2.80;;
16673;SDS011;8450;52.654;10.326;2023-02-28T14:51:37;4.47;;;3.37;;
16673;SDS011;8450;52.654;10.326;2023-02-28T14:56:47;5.37;;;3.57;;
16673;SDS011;8450;52.654;10.326;2023-02-28T14:59:24;4.03;;;3.00;;
16673;SDS011;8450;52.654;10.326;2023-02-28T15:02:14;3.03;;;2.70;;
16673;SDS011;8450;52.654;10.326;2023-02-28T15:04:57;3.23;;;2.83;;
16673;SDS011;8450;52.654;10.326;2023-02-28T15:07:25;2.90;;;2.60;;
16673;SDS011;8450;52.654;10.326;2023-02-28T15:12:41;3.53;;;3.23;;
16673;SDS011;8450;52.654;10.326;2023-02-28T15:15:17;3.00;;;2.70;;
16673;SDS011;8450;52.654;10.326;2023-02-28T15:17:47;3.27;;;2.77;;
16673;SDS011;8450;52.654;10.326;2023-02-28T15:20:19;4.77;;;3.20;;
16673;SDS011;8450;52.654;10.326;2023-02-28T15:22:46;3.20;;;2.87;;
16673;SDS011;8450;52.654;10.326;2023-02-28T15:25:17;3.47;;;2.57;;
16673;SDS011;8450;52.654;10.326;2023-02-28T15:27:46;4.63;;;2.60;;
16673;SDS011;8450;52.654;10.326;2023-02-28T15:30:27;3.53;;;2.80;;
16673;SDS011;8450;52.654;10.326;2023-02-28T15:35:36;3.30;;;2.63;;
16673;SDS011;8450;52.654;10.326;2023-02-28T15:38:14;3.50;;;2.80;;
16673;SDS011;8450;52.654;10.326;2023-02-28T15:40:52;3.00;;;2.47;;
16673;SDS011;8450;52.654;10.326;2023-02-28T15:43:23;4.47;;;2.67;;
16673;SDS011;8450;52.654;10.326;2023-02-28T15:45:55;3.47;;;2.80;;
16673;SDS011;8450;52.654;10.326;2023-02-28T15:48:24;2.83;;;2.50;;
16673;SDS011;8450;52.654;10.326;2023-02-28T15:50:53;2.90;;;2.60;;
16673;SDS011;8450;52.654;10.326;2023-02-28T15:53:22;3.20;;;2.80;;
16673;SDS011;8450;52.654;10.326;2023-02-28T15:55:54;2.97;;;2.67;;
16673;SDS011;8450;52.654;10.326;2023-02-28T15:58:22;5.37;;;2.80;;
16673;SDS011;8450;52.654;10.326;2023-02-28T16:01:16;3.50;;;3.00;;
16673;SDS011;8450;52.654;10.326;2023-02-28T16:03:49;2.90;;;2.47;;
16673;SDS011;8450;52.654;10.326;2023-02-28T16:06:31;3.03;;;2.50;;
